Time;durP1;ratioP1;P1;durP2;ratioP2;P2;SDS_P1;SDS_P2;PMS_P1;PMS_P2;Temp;Humidity;BMP_temperature;BMP_pressure;BME280_temperature;BME280_humidity;BME280_pressure;Samples;Min_cycle;Max_cycle;Signal;HPM_P1;HPM_P2
2022/10/24 00:00:06;;;;;;;23.92;3.00;;;;;;;;;;5012828;28;20030;-59
2022/10/24 00:02:33;;;;;;;25.27;2.80;;;;;;;;;;5013733;28;20096;-54
2022/10/24 00:04:59;;;;;;;29.02;3.30;;;;;;;;;;5012537;28;20383;-54
2022/10/24 00:07:26;;;;;;;22.23;3.15;;;;;;;;;;5012903;28;20022;-54
2022/10/24 00:09:53;;;;;;;23.15;2.95;;;;;;;;;;5014419;28;20034;-56
2022/10/24 00:12:20;;;;;;;20.80;3.65;;;;;;;;;;5019506;28;20428;-59
2022/10/24 00:14:47;;;;;;;21.42;3.13;;;;;;;;;;5013413;28;20406;-55
2022/10/24 00:17:14;;;;;;;17.92;3.20;;;;;;;;;;5013290;28;20017;-55
2022/10/24 00:19:41;;;;;;;23.63;3.90;;;;;;;;;;5012575;28;20101;-56
2022/10/24 00:22:08;;;;;;;22.73;3.67;;;;;;;;;;5012450;28;20109;-54
2022/10/24 00:24:35;;;;;;;28.27;4.20;;;;;;;;;;5011893;28;20419;-51
2022/10/24 00:27:03;;;;;;;28.52;3.92;;;;;;;;;;5009754;28;20060;-53
2022/10/24 00:29:30;;;;;;;34.72;3.90;;;;;;;;;;5010482;28;20379;-53
2022/10/24 00:31:57;;;;;;;19.90;3.40;;;;;;;;;;5012231;28;20052;-56
2022/10/24 00:34:24;;;;;;;18.83;3.35;;;;;;;;;;5011625;28;20040;-51
2022/10/24 00:36:50;;;;;;;25.27;3.92;;;;;;;;;;5012061;28;20034;-54
2022/10/24 00:39:18;;;;;;;21.60;3.30;;;;;;;;;;5011800;28;20041;-54
2022/10/24 00:41:44;;;;;;;27.77;3.75;;;;;;;;;;5011757;28;20041;-56
2022/10/24 00:44:31;;;;;;;18.73;3.63;;;;;;;;;;5010675;28;20094;-56
2022/10/24 00:47:05;;;;;;;18.20;3.13;;;;;;;;;;5010046;28;20025;-57
2022/10/24 00:49:40;;;;;;;17.90;3.25;;;;;;;;;;5011150;28;20030;-55
2022/10/24 00:52:09;;;;;;;22.42;3.42;;;;;;;;;;5012622;28;20101;-53
2022/10/24 00:54:37;;;;;;;21.40;3.28;;;;;;;;;;5013478;28;20429;-54
2022/10/24 00:57:08;;;;;;;22.85;4.32;;;;;;;;;;5011909;28;20808;-53
2022/10/24 00:59:36;;;;;;;18.77;4.10;;;;;;;;;;5011845;28;20034;-50
2022/10/24 01:02:03;;;;;;;24.38;4.00;;;;;;;;;;5011882;28;20387;-54
2022/10/24 01:04:30;;;;;;;26.25;4.40;;;;;;;;;;5011827;28;20033;-55
2022/10/24 01:07:04;;;;;;;24.20;3.80;;;;;;;;;;5011030;28;20533;-51
2022/10/24 01:09:31;;;;;;;24.95;4.60;;;;;;;;;;5011662;28;20060;-52
2022/10/24 01:12:04;;;;;;;29.13;4.88;;;;;;;;;;5012677;28;20022;-52
2022/10/24 01:14:30;;;;;;;;;;;;;;;;;;5012591;28;20474;-50
2022/10/24 01:17:00;;;;;;;23.58;4.88;;;;;;;;;;5012047;28;19909;-58
2022/10/24 01:19:27;;;;;;;35.05;5.45;;;;;;;;;;5012048;28;20088;-54
2022/10/24 01:21:57;;;;;;;31.92;5.38;;;;;;;;;;4993968;28;20084;-52
2022/10/24 01:24:42;;;;;;;26.27;5.43;;;;;;;;;;5010674;28;20045;-51
2022/10/24 01:27:21;;;;;;;29.45;6.07;;;;;;;;;;4993387;28;20030;-54
2022/10/24 01:29:54;;;;;;;22.08;4.85;;;;;;;;;;5011061;28;20372;-52
2022/10/24 01:32:30;;;;;;;19.48;5.40;;;;;;;;;;5011902;28;20036;-53
2022/10/24 01:35:00;;;;;;;20.45;4.90;;;;;;;;;;5011972;28;20088;-56
2022/10/24 01:37:27;;;;;;;24.70;5.97;;;;;;;;;;5012462;28;20033;-54
2022/10/24 01:39:56;;;;;;;24.13;4.63;;;;;;;;;;5012101;28;20034;-53
2022/10/24 01:42:24;;;;;;;20.83;4.60;;;;;;;;;;5012591;28;20430;-53
2022/10/24 01:44:53;;;;;;;18.27;4.85;;;;;;;;;;5011816;28;20037;-53
2022/10/24 01:47:23;;;;;;;29.02;5.53;;;;;;;;;;5012085;28;20033;-55
2022/10/24 01:49:53;;;;;;;20.30;4.82;;;;;;;;;;5011906;28;20030;-55
2022/10/24 01:52:21;;;;;;;29.42;5.03;;;;;;;;;;5023482;28;20025;-51
2022/10/24 01:54:48;;;;;;;26.23;4.75;;;;;;;;;;5010744;28;20049;-51
2022/10/24 01:57:16;;;;;;;30.30;5.50;;;;;;;;;;5012141;28;20033;-54
2022/10/24 01:59:47;;;;;;;23.58;4.90;;;;;;;;;;5011530;28;20029;-51
2022/10/24 02:02:14;;;;;;;21.35;4.63;;;;;;;;;;5011081;28;20097;-55
2022/10/24 02:04:45;;;;;;;27.92;4.65;;;;;;;;;;5011888;28;20046;-55
2022/10/24 02:07:12;;;;;;;23.65;4.65;;;;;;;;;;5011625;28;20030;-53
2022/10/24 02:09:40;;;;;;;23.60;3.90;;;;;;;;;;5012204;28;20509;-52
2022/10/24 02:12:08;;;;;;;19.77;3.92;;;;;;;;;;5011146;28;20471;-56
2022/10/24 02:14:55;;;;;;;17.90;4.43;;;;;;;;;;5011893;28;20352;-53
2022/10/24 02:17:22;;;;;;;23.50;4.47;;;;;;;;;;4999353;28;20034;-54
2022/10/24 02:19:49;;;;;;;18.75;4.15;;;;;;;;;;5026106;28;20378;-51
2022/10/24 02:22:29;;;;;;;20.65;4.25;;;;;;;;;;5023279;28;20029;-52
2022/10/24 02:25:07;;;;;;;18.15;3.78;;;;;;;;;;5014938;28;20445;-52
2022/10/24 02:27:40;;;;;;;15.40;3.85;;;;;;;;;;5031432;28;20099;-51
2022/10/24 02:30:18;;;;;;;20.42;3.58;;;;;;;;;;5005152;28;20065;-54
2022/10/24 02:32:48;;;;;;;22.67;4.00;;;;;;;;;;5017949;28;20034;-52
2022/10/24 02:35:15;;;;;;;13.65;3.67;;;;;;;;;;5025210;28;20040;-54
2022/10/24 02:37:46;;;;;;;16.48;3.63;;;;;;;;;;5024996;28;20116;-52
2022/10/24 02:40:14;;;;;;;13.35;3.40;;;;;;;;;;5026205;28;20068;-55
2022/10/24 02:42:42;;;;;;;21.42;3.20;;;;;;;;;;5012050;28;20026;-56
2022/10/24 02:45:09;;;;;;;18.00;3.30;;;;;;;;;;5025718;28;20080;-52
2022/10/24 02:47:38;;;;;;;11.75;3.03;;;;;;;;;;5012039;28;20029;-54
2022/10/24 02:50:05;;;;;;;14.25;3.17;;;;;;;;;;5011868;28;20030;-49
2022/10/24 02:52:33;;;;;;;13.23;3.08;;;;;;;;;;5020989;28;20387;-52
2022/10/24 02:55:00;;;;;;;15.57;3.40;;;;;;;;;;5016403;28;20034;-54
2022/10/24 02:57:27;;;;;;;18.52;3.30;;;;;;;;;;5012001;28;20277;-55
2022/10/24 02:59:54;;;;;;;14.43;4.45;;;;;;;;;;5025802;28;20056;-53
2022/10/24 03:02:21;;;;;;;12.82;3.03;;;;;;;;;;5011977;28;20033;-51
2022/10/24 03:04:48;;;;;;;10.13;3.38;;;;;;;;;;5024490;28;20102;-54
2022/10/24 03:07:15;;;;;;;9.98;2.95;;;;;;;;;;5012625;28;20018;-52
2022/10/24 03:09:41;;;;;;;12.35;3.22;;;;;;;;;;5012000;28;20033;-50
2022/10/24 03:12:09;;;;;;;10.30;2.65;;;;;;;;;;5015070;28;20025;-53
2022/10/24 03:14:36;;;;;;;18.17;3.10;;;;;;;;;;5021953;28;20080;-52
2022/10/24 03:17:03;;;;;;;8.85;2.35;;;;;;;;;;5027316;28;20502;-50
2022/10/24 03:19:30;;;;;;;8.48;2.65;;;;;;;;;;5023632;28;20103;-52
2022/10/24 03:21:57;;;;;;;8.02;2.30;;;;;;;;;;5011771;28;20050;-52
2022/10/24 03:24:24;;;;;;;8.93;2.47;;;;;;;;;;5021440;28;20407;-56
2022/10/24 03:26:51;;;;;;;7.43;2.47;;;;;;;;;;5035365;28;20044;-51
2022/10/24 03:29:21;;;;;;;12.75;2.95;;;;;;;;;;5016789;28;20131;-51
2022/10/24 03:31:47;;;;;;;6.32;2.20;;;;;;;;;;5026597;28;20124;-51
2022/10/24 03:34:14;;;;;;;5.97;2.33;;;;;;;;;;5031801;28;20104;-54
2022/10/24 03:36:41;;;;;;;14.60;2.60;;;;;;;;;;5024770;28;20041;-49
2022/10/24 03:39:08;;;;;;;8.75;2.17;;;;;;;;;;5021107;28;20507;-53
2022/10/24 03:41:35;;;;;;;9.80;2.65;;;;;;;;;;5027324;28;20034;-51
2022/10/24 03:44:02;;;;;;;8.48;2.25;;;;;;;;;;5028879;28;20037;-51
2022/10/24 03:46:29;;;;;;;6.70;2.17;;;;;;;;;;5029012;28;20030;-54
2022/10/24 03:48:56;;;;;;;10.65;2.13;;;;;;;;;;5027386;28;20030;-49
2022/10/24 03:51:23;;;;;;;8.15;1.92;;;;;;;;;;5030496;28;20032;-51
2022/10/24 03:53:50;;;;;;;5.22;2.08;;;;;;;;;;5014910;28;20029;-55
2022/10/24 03:56:17;;;;;;;7.18;2.50;;;;;;;;;;5014889;28;20038;-51
2022/10/24 03:58:44;;;;;;;8.30;2.10;;;;;;;;;;5033705;28;20472;-54
2022/10/24 04:01:16;;;;;;;5.88;2.03;;;;;;;;;;5034779;28;20022;-52
2022/10/24 04:03:43;;;;;;;5.72;2.00;;;;;;;;;;5020357;28;20038;-53
2022/10/24 04:06:10;;;;;;;8.48;2.33;;;;;;;;;;5024535;28;20487;-49
2022/10/24 04:08:37;;;;;;;7.63;2.55;;;;;;;;;;5028615;28;20029;-55
2022/10/24 04:11:05;;;;;;;7.25;2.33;;;;;;;;;;5023215;28;20033;-52
2022/10/24 04:13:32;;;;;;;5.28;1.65;;;;;;;;;;5034137;28;20662;-47
2022/10/24 04:15:59;;;;;;;7.15;2.10;;;;;;;;;;5027557;28;20022;-54
2022/10/24 04:18:26;;;;;;;6.55;1.85;;;;;;;;;;5027521;28;20029;-53
2022/10/24 04:20:53;;;;;;;10.25;2.08;;;;;;;;;;5020387;28;20021;-53
2022/10/24 04:23:20;;;;;;;5.90;1.60;;;;;;;;;;5022808;28;20527;-55
2022/10/24 04:25:47;;;;;;;5.47;2.00;;;;;;;;;;5007004;28;20053;-51
2022/10/24 04:28:14;;;;;;;4.25;1.58;;;;;;;;;;5004486;28;20026;-51
2022/10/24 04:30:41;;;;;;;4.38;1.80;;;;;;;;;;5012443;28;20022;-52
2022/10/24 04:33:07;;;;;;;7.10;1.90;;;;;;;;;;5002754;28;20053;-51
2022/10/24 04:35:34;;;;;;;4.53;1.40;;;;;;;;;;5013257;28;20058;-52
2022/10/24 04:38:01;;;;;;;3.70;1.67;;;;;;;;;;5001077;28;20357;-55
2022/10/24 04:40:28;;;;;;;8.30;1.95;;;;;;;;;;5014299;28;20025;-51
2022/10/24 04:42:55;;;;;;;3.60;1.73;;;;;;;;;;5000253;28;20422;-52
2022/10/24 04:45:22;;;;;;;5.35;1.42;;;;;;;;;;5003307;28;20019;-52
2022/10/24 04:47:49;;;;;;;3.95;1.30;;;;;;;;;;5008256;28;20014;-54
2022/10/24 04:50:16;;;;;;;6.47;1.50;;;;;;;;;;4994440;28;20369;-51
2022/10/24 04:52:43;;;;;;;4.40;1.65;;;;;;;;;;5008163;28;20495;-51
2022/10/24 04:55:10;;;;;;;2.47;1.27;;;;;;;;;;4998306;28;20033;-53
2022/10/24 04:57:37;;;;;;;4.20;1.60;;;;;;;;;;5003979;28;20026;-50
2022/10/24 05:00:05;;;;;;;5.82;1.67;;;;;;;;;;4999920;28;20038;-52
2022/10/24 05:02:32;;;;;;;5.95;1.58;;;;;;;;;;5005840;28;20383;-48
2022/10/24 05:04:59;;;;;;;6.57;1.58;;;;;;;;;;5008102;28;20038;-53
2022/10/24 05:07:25;;;;;;;4.70;1.48;;;;;;;;;;5007415;28;20076;-52
2022/10/24 05:09:52;;;;;;;5.18;1.60;;;;;;;;;;4994142;28;20542;-55
2022/10/24 05:12:19;;;;;;;4.43;1.70;;;;;;;;;;5007851;28;20030;-49
2022/10/24 05:14:46;;;;;;;5.78;1.48;;;;;;;;;;5004789;28;20025;-50
2022/10/24 05:17:14;;;;;;;4.65;1.40;;;;;;;;;;5013268;28;20127;-52
2022/10/24 05:19:41;;;;;;;2.70;1.20;;;;;;;;;;5004359;28;20049;-52
2022/10/24 05:22:08;;;;;;;6.00;1.50;;;;;;;;;;5006306;28;20369;-51
2022/10/24 05:24:34;;;;;;;3.50;1.42;;;;;;;;;;5005107;28;20046;-51
2022/10/24 05:27:01;;;;;;;3.42;1.30;;;;;;;;;;5019422;28;20022;-50
2022/10/24 05:29:28;;;;;;;4.35;1.30;;;;;;;;;;5019243;28;20116;-50
2022/10/24 05:31:55;;;;;;;4.60;1.05;;;;;;;;;;5033089;28;20032;-52
2022/10/24 05:34:22;;;;;;;3.17;1.23;;;;;;;;;;5028551;28;20030;-50
2022/10/24 05:36:49;;;;;;;4.20;1.38;;;;;;;;;;5023629;28;20029;-53
2022/10/24 05:39:16;;;;;;;3.00;1.10;;;;;;;;;;5032487;28;20029;-49
2022/10/24 05:41:43;;;;;;;3.20;1.23;;;;;;;;;;5032859;28;20033;-50
2022/10/24 05:44:12;;;;;;;4.03;1.00;;;;;;;;;;5031563;28;20446;-50
2022/10/24 05:46:39;;;;;;;3.88;1.10;;;;;;;;;;5012040;28;20088;-47
2022/10/24 05:49:07;;;;;;;3.25;1.20;;;;;;;;;;5026491;28;20032;-47
2022/10/24 05:51:34;;;;;;;4.25;1.27;;;;;;;;;;5012855;28;20535;-48
2022/10/24 05:54:00;;;;;;;2.90;1.00;;;;;;;;;;5012899;28;20029;-52
2022/10/24 05:56:28;;;;;;;2.75;1.13;;;;;;;;;;5016685;28;20061;-48
2022/10/24 05:58:56;;;;;;;3.35;1.20;;;;;;;;;;5019199;28;20116;-50
2022/10/24 06:01:23;;;;;;;4.20;0.95;;;;;;;;;;5024910;28;20057;-49
2022/10/24 06:03:50;;;;;;;3.25;1.30;;;;;;;;;;5017062;28;20036;-53
2022/10/24 06:06:17;;;;;;;6.00;1.45;;;;;;;;;;5016437;28;20097;-51
2022/10/24 06:08:44;;;;;;;3.25;1.00;;;;;;;;;;5012038;28;20034;-50
2022/10/24 06:11:11;;;;;;;6.40;1.13;;;;;;;;;;5012177;28;20034;-52
2022/10/24 06:13:38;;;;;;;4.38;1.10;;;;;;;;;;5027226;28;20120;-49
2022/10/24 06:16:06;;;;;;;3.95;1.10;;;;;;;;;;5032276;28;20014;-53
2022/10/24 06:18:33;;;;;;;3.83;1.00;;;;;;;;;;5018795;28;20487;-53
2022/10/24 06:21:01;;;;;;;3.13;1.02;;;;;;;;;;5017947;28;20167;-48
2022/10/24 06:23:28;;;;;;;4.63;1.20;;;;;;;;;;5019997;28;20034;-50
2022/10/24 06:25:55;;;;;;;1.88;0.82;;;;;;;;;;5030091;28;20164;-50
2022/10/24 06:28:22;;;;;;;2.17;0.90;;;;;;;;;;5032063;28;20033;-48
2022/10/24 06:30:50;;;;;;;2.92;1.20;;;;;;;;;;5000389;28;20034;-51
2022/10/24 06:33:16;;;;;;;4.65;1.05;;;;;;;;;;5023162;28;20030;-53
2022/10/24 06:35:43;;;;;;;3.92;1.00;;;;;;;;;;5026097;28;20037;-48
2022/10/24 06:38:10;;;;;;;1.85;0.85;;;;;;;;;;5012276;28;20032;-53
2022/10/24 06:40:41;;;;;;;3.40;0.80;;;;;;;;;;5025346;28;20079;-50
2022/10/24 06:43:08;;;;;;;3.55;0.98;;;;;;;;;;5031688;28;20040;-49
2022/10/24 06:45:37;;;;;;;4.35;0.82;;;;;;;;;;5019763;28;20375;-49
2022/10/24 06:48:04;;;;;;;2.53;1.05;;;;;;;;;;5016574;28;20117;-53
2022/10/24 06:50:31;;;;;;;4.70;1.02;;;;;;;;;;5031844;28;20033;-52
2022/10/24 06:52:58;;;;;;;2.53;0.85;;;;;;;;;;5028775;28;20021;-53
2022/10/24 06:55:25;;;;;;;3.05;0.90;;;;;;;;;;5011886;28;20088;-49
2022/10/24 06:57:53;;;;;;;2.88;0.70;;;;;;;;;;5015239;28;20442;-53
2022/10/24 07:00:20;;;;;;;2.90;0.88;;;;;;;;;;5032386;28;20065;-55
2022/10/24 07:02:47;;;;;;;1.65;0.75;;;;;;;;;;5018490;28;20029;-51
2022/10/24 07:05:14;;;;;;;3.03;0.80;;;;;;;;;;5020630;28;20087;-52
2022/10/24 07:07:42;;;;;;;1.88;0.80;;;;;;;;;;5012048;28;20057;-53
2022/10/24 07:10:12;;;;;;;2.70;0.82;;;;;;;;;;5033056;28;20025;-51
2022/10/24 07:12:39;;;;;;;1.85;0.90;;;;;;;;;;5038285;28;20033;-53
2022/10/24 07:15:06;;;;;;;3.33;1.00;;;;;;;;;;5024535;28;20073;-49
2022/10/24 07:17:38;;;;;;;2.75;1.10;;;;;;;;;;5024043;28;20091;-50
2022/10/24 07:20:04;;;;;;;;;;;;;;;;;;5025871;28;20145;-51
2022/10/24 07:22:31;;;;;;;2.55;0.90;;;;;;;;;;5018294;28;19905;-49
2022/10/24 07:24:58;;;;;;;2.50;0.90;;;;;;;;;;5028744;28;20088;-55
2022/10/24 07:27:25;;;;;;;1.98;0.70;;;;;;;;;;5020978;28;20052;-52
2022/10/24 07:29:52;;;;;;;1.77;0.73;;;;;;;;;;5018343;28;20072;-50
2022/10/24 07:32:20;;;;;;;2.35;0.90;;;;;;;;;;5032079;28;20031;-48
2022/10/24 07:34:47;;;;;;;1.45;0.80;;;;;;;;;;5025844;28;20475;-52
2022/10/24 07:37:17;;;;;;;3.03;1.00;;;;;;;;;;5037924;28;20037;-53
2022/10/24 07:39:45;;;;;;;3.30;0.70;;;;;;;;;;5037989;28;20060;-47
2022/10/24 07:42:12;;;;;;;2.58;0.80;;;;;;;;;;5037757;28;20038;-51
2022/10/24 07:44:39;;;;;;;3.47;0.85;;;;;;;;;;5017836;28;20037;-49
2022/10/24 07:47:08;;;;;;;4.90;1.05;;;;;;;;;;5029223;28;20116;-55
2022/10/24 07:49:36;;;;;;;3.40;0.90;;;;;;;;;;5034113;28;20394;-47
2022/10/24 07:52:03;;;;;;;2.03;0.70;;;;;;;;;;5027902;28;20112;-51
2022/10/24 07:54:29;;;;;;;3.15;0.90;;;;;;;;;;5035605;28;20487;-54
2022/10/24 07:56:56;;;;;;;2.58;0.80;;;;;;;;;;5022135;28;20026;-52
2022/10/24 07:59:23;;;;;;;1.38;0.60;;;;;;;;;;5037776;28;20037;-52
2022/10/24 08:01:50;;;;;;;1.70;0.75;;;;;;;;;;5037621;28;20030;-47
2022/10/24 08:04:17;;;;;;;3.13;0.80;;;;;;;;;;5029003;28;20045;-51
2022/10/24 08:06:44;;;;;;;1.67;0.77;;;;;;;;;;5031688;28;20048;-56
2022/10/24 08:09:11;;;;;;;3.75;0.70;;;;;;;;;;5022626;28;20052;-50
2022/10/24 08:11:39;;;;;;;1.05;0.50;;;;;;;;;;5021404;28;20384;-50
2022/10/24 08:14:06;;;;;;;1.40;0.60;;;;;;;;;;5033946;28;20029;-52
2022/10/24 08:16:33;;;;;;;1.50;0.60;;;;;;;;;;5022875;28;20037;-46
2022/10/24 08:19:00;;;;;;;2.00;1.00;;;;;;;;;;4997250;28;20030;-53
2022/10/24 08:21:28;;;;;;;3.13;0.65;;;;;;;;;;5014641;28;20041;-52
2022/10/24 08:23:57;;;;;;;1.83;0.52;;;;;;;;;;5028208;28;20052;-49
2022/10/24 08:26:25;;;;;;;1.63;0.50;;;;;;;;;;5023064;28;20141;-52
2022/10/24 08:28:52;;;;;;;2.58;0.60;;;;;;;;;;5033169;28;20053;-48
2022/10/24 08:31:21;;;;;;;1.08;0.60;;;;;;;;;;5014546;28;20507;-48
2022/10/24 08:33:48;;;;;;;2.50;0.65;;;;;;;;;;5027775;28;20029;-54
2022/10/24 08:36:26;;;;;;;1.00;0.55;;;;;;;;;;5034032;28;20029;-50
2022/10/24 08:38:53;;;;;;;1.48;0.52;;;;;;;;;;5034047;28;20033;-48
2022/10/24 08:41:26;;;;;;;2.00;0.80;;;;;;;;;;5028610;28;20072;-49
2022/10/24 08:43:54;;;;;;;1.50;0.80;;;;;;;;;;5026586;28;20034;-52
2022/10/24 08:46:27;;;;;;;1.85;0.70;;;;;;;;;;5002118;28;20029;-54
2022/10/24 08:49:00;;;;;;;1.55;0.75;;;;;;;;;;5033878;28;20116;-52
2022/10/24 08:51:49;;;;;;;1.45;0.60;;;;;;;;;;5019857;28;20026;-48
2022/10/24 08:54:24;;;;;;;1.98;0.50;;;;;;;;;;4982815;28;20041;-49
2022/10/24 08:56:56;;;;;;;3.35;0.88;;;;;;;;;;5013939;28;20483;-48
2022/10/24 08:59:23;;;;;;;;;;;;;;;;;;5014230;28;20038;-54
2022/10/24 09:01:58;;;;;;;0.98;0.50;;;;;;;;;;5030096;28;19908;-46
2022/10/24 09:04:28;;;;;;;2.35;0.52;;;;;;;;;;5023659;28;20050;-52
2022/10/24 09:06:55;;;;;;;3.00;0.60;;;;;;;;;;5029973;28;20037;-51
2022/10/24 09:09:28;;;;;;;1.60;0.63;;;;;;;;;;5033551;28;20025;-50
2022/10/24 09:11:57;;;;;;;3.30;0.70;;;;;;;;;;5018010;28;20034;-48
2022/10/24 09:14:28;;;;;;;2.13;0.60;;;;;;;;;;5021310;28;20384;-51
2022/10/24 09:17:14;;;;;;;1.90;0.70;;;;;;;;;;5019330;28;20038;-50
2022/10/24 09:19:44;;;;;;;1.83;0.52;;;;;;;;;;5033183;28;20025;-51
2022/10/24 09:22:11;;;;;;;0.90;0.50;;;;;;;;;;4999422;28;20084;-51
2022/10/24 09:24:46;;;;;;;1.77;0.60;;;;;;;;;;5021114;28;20057;-49
2022/10/24 09:27:18;;;;;;;11.65;1.10;;;;;;;;;;5017722;28;20034;-54
2022/10/24 09:29:45;;;;;;;11.18;1.00;;;;;;;;;;5021746;28;20033;-49
2022/10/24 09:32:17;;;;;;;11.05;1.17;;;;;;;;;;5018700;28;20025;-56
2022/10/24 09:34:44;;;;;;;15.93;1.10;;;;;;;;;;5019688;28;20499;-55
2022/10/24 09:37:31;;;;;;;13.85;1.77;;;;;;;;;;5032923;28;20033;-54
2022/10/24 09:40:16;;;;;;;15.88;1.55;;;;;;;;;;5024626;28;20026;-55
2022/10/24 09:43:00;;;;;;;7.25;0.90;;;;;;;;;;5015995;28;20483;-55
2022/10/24 09:45:34;;;;;;;5.00;0.73;;;;;;;;;;5032775;28;20104;-54
2022/10/24 09:48:02;;;;;;;5.35;1.00;;;;;;;;;;5018673;28;20037;-54
2022/10/24 09:50:30;;;;;;;8.10;0.98;;;;;;;;;;5021514;28;20510;-55
2022/10/24 09:52:58;;;;;;;3.28;0.85;;;;;;;;;;5026843;28;20065;-50
2022/10/24 09:55:30;;;;;;;7.13;1.00;;;;;;;;;;5016791;28;20033;-50
2022/10/24 09:58:02;;;;;;;3.58;0.80;;;;;;;;;;5025124;28;20036;-52
2022/10/24 10:00:30;;;;;;;5.35;0.75;;;;;;;;;;5032307;28;20037;-55
2022/10/24 10:03:00;;;;;;;2.53;0.70;;;;;;;;;;5032333;28;20025;-50
2022/10/24 10:05:29;;;;;;;6.22;0.63;;;;;;;;;;5032175;28;20029;-52
2022/10/24 10:07:57;;;;;;;3.40;0.90;;;;;;;;;;5032442;28;20033;-53
2022/10/24 10:10:24;;;;;;;3.83;0.90;;;;;;;;;;5018366;28;20091;-54
2022/10/24 10:12:58;;;;;;;2.13;0.52;;;;;;;;;;5032226;28;20492;-51
2022/10/24 10:15:37;;;;;;;2.80;0.60;;;;;;;;;;5032134;28;20452;-55
2022/10/24 10:18:22;;;;;;;5.05;0.90;;;;;;;;;;5032113;28;20037;-54
2022/10/24 10:21:09;;;;;;;3.22;0.55;;;;;;;;;;5031983;28;20033;-53
2022/10/24 10:23:44;;;;;;;1.52;0.60;;;;;;;;;;5032028;28;20410;-52
2022/10/24 10:26:41;;;;;;;3.40;0.70;;;;;;;;;;4999456;28;20567;-52
2022/10/24 10:29:22;;;;;;;4.15;0.55;;;;;;;;;;5029317;28;20021;-51
2022/10/24 10:31:56;;;;;;;3.90;0.75;;;;;;;;;;5031473;28;20394;-55
2022/10/24 10:34:25;;;;;;;4.15;0.73;;;;;;;;;;5027442;28;20057;-50
2022/10/24 10:37:10;;;;;;;2.88;0.63;;;;;;;;;;5012352;28;20034;-54
2022/10/24 10:39:51;;;;;;;3.10;0.63;;;;;;;;;;5017672;28;20036;-55
2022/10/24 10:42:34;;;;;;;3.78;0.60;;;;;;;;;;5031878;28;20487;-55
2022/10/24 10:45:04;;;;;;;3.67;0.68;;;;;;;;;;5031823;28;20040;-51
2022/10/24 10:47:39;;;;;;;2.30;0.80;;;;;;;;;;5017828;28;20045;-51
2022/10/24 10:50:23;;;;;;;3.05;0.82;;;;;;;;;;5024089;28;20483;-53
2022/10/24 10:52:50;;;;;;;5.40;0.90;;;;;;;;;;5028055;28;20396;-54
2022/10/24 10:55:17;;;;;;;3.30;0.70;;;;;;;;;;5023232;28;20022;-55
2022/10/24 10:58:10;;;;;;;1.92;0.60;;;;;;;;;;5012060;28;20034;-54
2022/10/24 11:00:37;;;;;;;;;;;;;;;;;;4981647;28;20131;-54
2022/10/24 11:03:03;;;;;;;2.65;0.60;;;;;;;;;;5031447;28;20064;-56
2022/10/24 11:05:33;;;;;;;6.38;0.70;;;;;;;;;;5026922;28;20034;-56
2022/10/24 11:08:29;;;;;;;2.03;0.77;;;;;;;;;;5011817;28;20093;-52
2022/10/24 11:10:59;;;;;;;2.92;0.70;;;;;;;;;;4990630;28;20045;-51
2022/10/24 11:13:44;;;;;;;5.80;1.02;;;;;;;;;;5017627;28;20499;-52
2022/10/24 11:16:18;;;;;;;7.53;0.88;;;;;;;;;;5009554;28;20032;-55
2022/10/24 11:18:47;;;;;;;5.20;0.80;;;;;;;;;;5013406;28;20117;-48
2022/10/24 11:21:16;;;;;;;7.68;1.05;;;;;;;;;;5023022;28;20483;-49
2022/10/24 11:23:55;;;;;;;6.07;0.90;;;;;;;;;;5025980;28;20051;-53
2022/10/24 11:26:22;;;;;;;8.43;0.95;;;;;;;;;;5026162;28;20053;-55
2022/10/24 11:28:54;;;;;;;7.65;1.77;;;;;;;;;;5014060;28;20036;-51
2022/10/24 11:31:23;;;;;;;3.07;0.80;;;;;;;;;;5011607;28;20116;-55
2022/10/24 11:34:16;;;;;;;5.85;1.00;;;;;;;;;;5011522;28;20269;-50
2022/10/24 11:36:46;;;;;;;8.77;1.00;;;;;;;;;;4980890;28;20495;-50
2022/10/24 11:39:17;;;;;;;6.20;1.20;;;;;;;;;;5007971;28;20530;-50
2022/10/24 11:42:02;;;;;;;10.70;1.23;;;;;;;;;;5015935;28;20495;-50
2022/10/24 11:44:38;;;;;;;5.22;1.00;;;;;;;;;;5012035;28;20099;-50
2022/10/24 11:47:17;;;;;;;8.18;1.10;;;;;;;;;;5014800;28;20034;-53
2022/10/24 11:49:47;;;;;;;10.75;1.38;;;;;;;;;;5001461;28;20033;-51
2022/10/24 11:52:26;;;;;;;4.82;0.90;;;;;;;;;;5027425;28;20045;-52
2022/10/24 11:54:56;;;;;;;4.38;1.30;;;;;;;;;;5028362;28;20050;-51
2022/10/24 11:57:25;;;;;;;5.93;1.30;;;;;;;;;;5015053;28;20112;-46
2022/10/24 11:59:53;;;;;;;4.10;0.85;;;;;;;;;;5014952;28;20037;-51
2022/10/24 12:02:20;;;;;;;7.07;1.15;;;;;;;;;;5028164;28;20030;-47
2022/10/24 12:05:04;;;;;;;8.23;1.00;;;;;;;;;;5027247;28;20047;-48
2022/10/24 12:07:40;;;;;;;6.18;1.35;;;;;;;;;;5009586;28;20033;-50
2022/10/24 12:10:15;;;;;;;6.47;1.02;;;;;;;;;;5033674;28;20037;-54
2022/10/24 12:13:01;;;;;;;5.55;1.25;;;;;;;;;;5022440;28;20060;-47
2022/10/24 12:15:48;;;;;;;5.80;0.88;;;;;;;;;;5017379;28;20033;-48
2022/10/24 12:18:34;;;;;;;5.38;1.17;;;;;;;;;;5014418;28;20088;-50
2022/10/24 12:21:12;;;;;;;4.63;1.08;;;;;;;;;;5002381;28;20032;-55
2022/10/24 12:23:43;;;;;;;7.63;1.30;;;;;;;;;;5001459;28;20499;-52
2022/10/24 12:26:21;;;;;;;6.35;1.27;;;;;;;;;;5013679;28;20049;-49
2022/10/24 12:29:04;;;;;;;7.78;1.63;;;;;;;;;;5002585;28;20372;-50
2022/10/24 12:31:35;;;;;;;6.88;1.70;;;;;;;;;;5025344;28;20025;-48
2022/10/24 12:34:18;;;;;;;6.90;1.60;;;;;;;;;;5018587;28;20042;-50
2022/10/24 12:37:03;;;;;;;7.10;1.42;;;;;;;;;;5020378;28;20053;-55
2022/10/24 12:39:31;;;;;;;12.80;1.73;;;;;;;;;;5012437;28;20037;-53
2022/10/24 12:41:58;;;;;;;9.85;1.73;;;;;;;;;;5011410;28;20036;-52
2022/10/24 12:44:34;;;;;;;11.38;1.70;;;;;;;;;;5022245;28;20487;-47
2022/10/24 12:47:01;;;;;;;10.30;1.52;;;;;;;;;;5031969;28;20106;-48
2022/10/24 12:49:30;;;;;;;12.77;2.17;;;;;;;;;;5029468;28;20033;-54
2022/10/24 12:51:57;;;;;;;14.27;1.92;;;;;;;;;;5014983;28;20127;-54
2022/10/24 12:54:39;;;;;;;16.65;1.98;;;;;;;;;;5024740;28;20097;-58
2022/10/24 12:57:07;;;;;;;20.92;2.25;;;;;;;;;;5011402;28;20091;-51
2022/10/24 12:59:34;;;;;;;17.15;2.22;;;;;;;;;;5025491;28;20067;-55
2022/10/24 13:02:13;;;;;;;8.82;1.92;;;;;;;;;;5019531;28;20037;-56
2022/10/24 13:04:43;;;;;;;11.00;1.88;;;;;;;;;;5017992;28;20117;-55
2022/10/24 13:07:26;;;;;;;13.65;1.50;;;;;;;;;;5012858;28;20368;-50
2022/10/24 13:10:01;;;;;;;12.70;1.63;;;;;;;;;;5012570;28;20057;-51
2022/10/24 13:12:30;;;;;;;13.77;1.55;;;;;;;;;;5013084;28;20026;-50
2022/10/24 13:15:14;;;;;;;8.90;1.45;;;;;;;;;;5009788;28;20475;-52
2022/10/24 13:17:51;;;;;;;11.52;1.73;;;;;;;;;;5011806;28;20101;-50
2022/10/24 13:20:19;;;;;;;10.90;1.70;;;;;;;;;;5012237;28;20038;-52
2022/10/24 13:22:49;;;;;;;6.57;1.30;;;;;;;;;;5022017;28;20088;-51
2022/10/24 13:25:32;;;;;;;10.98;1.40;;;;;;;;;;5015928;28;20057;-49
2022/10/24 13:28:19;;;;;;;8.30;1.70;;;;;;;;;;5022930;28;20033;-54
2022/10/24 13:30:47;;;;;;;9.70;1.50;;;;;;;;;;5009233;28;20360;-53
2022/10/24 13:33:29;;;;;;;9.52;1.40;;;;;;;;;;5016308;28;20570;-54
2022/10/24 13:36:13;;;;;;;8.75;2.13;;;;;;;;;;5032447;28;20095;-55
2022/10/24 13:38:47;;;;;;;6.03;1.40;;;;;;;;;;5015171;28;20385;-51
2022/10/24 13:41:18;;;;;;;15.00;1.73;;;;;;;;;;5025516;28;20025;-49
2022/10/24 13:43:47;;;;;;;7.20;1.45;;;;;;;;;;5032014;28;20101;-48
2022/10/24 13:46:22;;;;;;;7.22;1.88;;;;;;;;;;5019753;28;20022;-52
2022/10/24 13:48:51;;;;;;;10.77;1.38;;;;;;;;;;5026300;28;20022;-55
2022/10/24 13:51:20;;;;;;;9.50;1.83;;;;;;;;;;5012030;28;20076;-56
2022/10/24 13:53:54;;;;;;;8.77;1.60;;;;;;;;;;5012018;28;20033;-52
2022/10/24 13:56:21;;;;;;;11.70;1.83;;;;;;;;;;5011606;28;20025;-53
2022/10/24 13:58:48;;;;;;;12.35;1.90;;;;;;;;;;5017959;28;20025;-51
2022/10/24 14:01:26;;;;;;;10.25;1.75;;;;;;;;;;5018547;28;20024;-54
2022/10/24 14:03:54;;;;;;;11.25;1.70;;;;;;;;;;5019228;28;20132;-52
2022/10/24 14:06:29;;;;;;;8.77;1.63;;;;;;;;;;5021975;28;20025;-53
2022/10/24 14:08:57;;;;;;;11.18;1.80;;;;;;;;;;5018220;28;20387;-55
2022/10/24 14:11:26;;;;;;;11.35;1.50;;;;;;;;;;5031867;28;20029;-54
2022/10/24 14:13:54;;;;;;;14.27;2.05;;;;;;;;;;5026289;28;20084;-54
2022/10/24 14:16:25;;;;;;;17.92;2.45;;;;;;;;;;5012063;28;20032;-54
2022/10/24 14:18:52;;;;;;;19.67;2.45;;;;;;;;;;5014568;28;20487;-54
2022/10/24 14:21:21;;;;;;;17.02;2.83;;;;;;;;;;5019523;28;20026;-52
2022/10/24 14:23:59;;;;;;;16.17;2.30;;;;;;;;;;5027905;28;20828;-52
2022/10/24 14:26:26;;;;;;;10.88;2.20;;;;;;;;;;5018390;28;20056;-51
2022/10/24 14:28:57;;;;;;;15.18;2.33;;;;;;;;;;5031626;28;20075;-53
2022/10/24 14:31:26;;;;;;;14.75;2.53;;;;;;;;;;5024200;28;20033;-54
2022/10/24 14:33:54;;;;;;;15.27;2.10;;;;;;;;;;5024837;28;20102;-52
2022/10/24 14:36:27;;;;;;;12.23;1.92;;;;;;;;;;5031494;28;20034;-50
2022/10/24 14:38:57;;;;;;;16.92;2.15;;;;;;;;;;5011535;28;20037;-56
2022/10/24 14:41:34;;;;;;;15.18;2.22;;;;;;;;;;5003324;28;20120;-53
2022/10/24 14:44:01;;;;;;;13.77;2.20;;;;;;;;;;5031381;28;20022;-52
2022/10/24 14:46:38;;;;;;;18.83;2.47;;;;;;;;;;5016694;28;20076;-55
2022/10/24 14:49:23;;;;;;;16.55;2.47;;;;;;;;;;5007537;28;20022;-56
2022/10/24 14:51:51;;;;;;;16.73;2.38;;;;;;;;;;5031460;28;20022;-55
2022/10/24 14:54:23;;;;;;;16.17;2.53;;;;;;;;;;5029438;28;20028;-51
2022/10/24 14:56:52;;;;;;;11.63;2.20;;;;;;;;;;5016574;28;20025;-56